• Join FlightAware (Why Join?)
  • Login
  • US Flag 
06:41AM EDT


 

Airport Tracker/Info


-or-


 

Live Flight TrackerFlight Track Log ✈ THY9 ✈ 22-Jun-2013 ✈ LTBA / IST - KLAX

Flight Track Log - Related Links

Times and Time Zones

All times are in EDT time to prevent confusion due to time zone crossing. See the THY9 flight status page for this flight to view local times or setup timezone preferences in your user account.

Time Position Orientation Groundspeed Altitude Reporting Facility
EDT Latitude Longitude Course Direction KTS MPH feet Rate Location/Type
06:04AM 41.0320 28.8070 358° North 193 222 2,000  Level FlightAware
06:04AM 41.0490 28.8060 357° North 208 239 2,300 1,200 Climbing FlightAware
06:05AM 41.0780 28.8050 359° North 243 280 3,000 1,620 Climbing FlightAware
06:05AM 41.1150 28.8040 359° North 262 302 3,800 2,220 Climbing FlightAware
06:06AM 41.1700 28.8010 358° North 271 312 5,600 2,340 Climbing FlightAware
06:07AM 41.2060 28.8000 359° North 275 316 6,700 2,160 Climbing FlightAware
06:07AM 41.2420 28.7900 348° North 282 325 7,800 2,580 Climbing FlightAware
06:07AM 41.2780 28.7560 325° Northwest 288 331 9,200 2,040 Climbing FlightAware
06:08AM 41.3400 28.6900 321° Northwest 318 366 10,700 1,380 Climbing FlightAware
06:09AM 41.3950 28.6310 321° Northwest 356 410 11,500 1,500 Climbing FlightAware
06:10AM 41.4860 28.5350 322° Northwest 389 448 13,500 1,440 Climbing FlightAware
06:11AM 41.5150 28.5040 321° Northwest 388 447 14,300 1,980 Climbing FlightAware
06:12AM 41.6610 28.3480 321° Northwest 410 472 17,700 2,400 Climbing FlightAware
06:13AM 41.7210 28.2840 321° Northwest 413 475 18,900 1,680 Climbing FlightAware
06:15AM 41.8670 28.1260 321° Northwest 434 499 21,500 1,620 Climbing FlightAware
06:15AM 41.9550 28.0680 334° Northwest 444 511 22,800 1,500 Climbing FlightAware
06:17AM 42.1060 27.9830 337° Northwest 451 519 24,700 1,320 Climbing FlightAware
06:17AM 42.1840 27.9390 337° Northwest 463 533 25,500 1,200 Climbing FlightAware
06:19AM 42.3340 27.8520 337° Northwest 479 551 27,100 1,260 Climbing FlightAware
06:19AM 42.4230 27.8020 337° Northwest 482 555 28,100 780 Climbing FlightAware
06:21AM 42.5140 27.7490 337° Northwest 490 564 28,800 900 Climbing FlightAware
06:21AM 42.6750 27.6570 337° Northwest 495 570 30,000 840 Climbing FlightAware
06:22AM 42.7760 27.5990 337° Northwest 487 560 30,000  Level FlightAware
06:23AM 42.8690 27.5450 337° Northwest 486 559 30,000  Level FlightAware
06:24AM 42.9660 27.4890 337° Northwest 484 557 30,000  Level FlightAware
06:24AM 43.0480 27.4410 337° Northwest 484 557 30,000  Level FlightAware
06:25AM 43.1750 27.3670 337° Northwest 485 558 30,000  Level FlightAware
06:26AM 43.2460 27.3250 337° Northwest 485 558 30,000  Level FlightAware
06:26AM 43.3080 27.2880 337° Northwest 486 559 30,000  Level FlightAware
06:27AM 43.4000 27.2350 337° Northwest 487 560 30,000  Level FlightAware
06:28AM 43.5000 27.1750 336° Northwest 488 562 30,000  Level FlightAware
06:29AM 43.5780 27.1290 337° Northwest 487 560 30,000  Level FlightAware
06:29AM 43.6620 27.0790 337° Northwest 488 562 30,000  Level FlightAware
06:30AM 43.7470 27.0290 337° Northwest 489 563 30,000  Level FlightAware
06:31AM 43.8410 26.9720 336° Northwest 490 564 30,000  Level FlightAware
06:31AM 43.9220 26.9230 336° Northwest 492 566 30,000  Level FlightAware
06:32AM 44.0180 26.8650 337° Northwest 494 568 30,000  Level FlightAware
06:33AM 44.1030 26.8020 332° Northwest 496 571 30,000  Level FlightAware
06:33AM 44.1710 26.7300 323° Northwest 497 572 30,000  Level FlightAware
06:34AM 44.2510 26.6420 322° Northwest 496 571 30,000  Level FlightAware
06:35AM 44.3220 26.5650 322° Northwest 495 570 30,000  Level FlightAware
06:36AM 44.3990 26.4820 322° Northwest 494 568 30,000  Level FlightAware
06:36AM 44.4680 26.4070 322° Northwest 494 568 30,000  Level FlightAware
06:37AM 44.5570 26.3110 322° Northwest 496 571 30,000  Level FlightAware
06:38AM 44.6240 26.2370 322° Northwest 496 571 30,000  Level FlightAware
06:38AM 44.6990 26.1560 322° Northwest 497 572 30,000  Level FlightAware
06:39AM 44.7840 26.0620 322° Northwest 498 573 30,000  Level FlightAware
06:40AM 44.8510 25.9880 322° Northwest 500 575 30,000  Level FlightAware
06:41AM 44.9430 25.8850 322° Northwest 501 577 30,000  Level FlightAware
06:41AM 45.0380 25.7780 321° Northwest 501 577 30,000  Level FlightAware
06:42AM 45.1170 25.6880 321° Northwest 500 575 30,000  Level FlightAware
06:43AM 45.1840 25.6120 321° Northwest 500 575 30,000  Level FlightAware
06:43AM 45.2640 25.5200 321° Northwest 499 574 30,000  Level FlightAware
06:44AM 45.3440 25.4280 321° Northwest 497 572 30,000  Level FlightAware
06:45AM 45.4460 25.3110 321° Northwest 499 574 30,000  Level FlightAware
06:46AM 45.5170 25.2290 321° Northwest 502 578 30,000  Level FlightAware
06:46AM 45.5840 25.1520 321° Northwest 501 577 30,000  Level FlightAware
06:47AM 45.6750 25.0460 321° Northwest 499 574 30,000  Level FlightAware
06:48AM 45.7400 24.9700 321° Northwest 499 574 30,000  Level FlightAware
06:49AM 45.8180 24.8790 321° Northwest 498 573 30,000  Level FlightAware
06:49AM 45.8810 24.8050 321° Northwest 496 571 30,000  Level FlightAware
06:51AM 46.0420 24.6150 321° Northwest 494 568 30,000  Level FlightAware
06:51AM 46.1060 24.5380 320° Northwest 492 566 30,000  Level FlightAware
06:52AM 46.2140 24.4100 321° Northwest 490 564 30,000  Level FlightAware
06:53AM 46.2850 24.3430 327° Northwest 493 567 30,000  Level FlightAware
06:54AM 46.4090 24.2740 339° North 495 570 30,000  Level FlightAware
06:55AM 46.5190 24.2110 338° Northwest 497 572 30,000  Level FlightAware
06:56AM 46.6230 24.1520 339° North 499 574 30,000  Level FlightAware
06:56AM 46.6980 24.1060 337° Northwest 497 572 30,000  Level FlightAware
06:57AM 46.7890 24.0230 328° Northwest 495 570 30,000  Level FlightAware
06:58AM 46.8690 23.9310 322° Northwest 496 571 30,000  Level FlightAware
06:58AM 46.9480 23.8340 320° Northwest 498 573 30,000  Level FlightAware
06:59AM 47.0210 23.7440 320° Northwest 501 577 30,000  Level FlightAware
07:00AM 47.1110 23.6330 320° Northwest 505 581 30,000  Level FlightAware
07:01AM 47.1860 23.5400 320° Northwest 505 581 30,000  Level FlightAware
07:01AM 47.2650 23.4400 319° Northwest 504 580 30,000  Level FlightAware
07:02AM 47.3330 23.3560 320° Northwest 502 578 30,000  Level FlightAware
07:03AM 47.4670 23.1860 319° Northwest 492 566 30,000  Level FlightAware
07:04AM 47.5460 23.0860 320° Northwest 493 567 30,000  Level FlightAware
07:05AM 47.6150 22.9990 320° Northwest 489 563 30,000  Level FlightAware
07:05AM 47.6860 22.9080 319° Northwest 490 564 30,000  Level FlightAware
07:06AM 47.7520 22.8200 318° Northwest 494 568 30,000  Level FlightAware
07:07AM 47.8530 22.6720 316° Northwest 502 578 30,000  Level FlightAware
07:08AM 47.9270 22.5640 316° Northwest 498 573 30,000  Level FlightAware
07:09AM 48.0030 22.4800 324° Northwest 508 585 30,000  Level FlightAware
07:09AM 48.0760 22.4050 326° Northwest 508 585 30,000  Level FlightAware
07:10AM 48.1560 22.3190 324° Northwest 502 578 30,000  Level FlightAware
07:11AM 48.2320 22.2350 324° Northwest 503 579 30,000  Level FlightAware
07:11AM 48.3220 22.1340 323° Northwest 512 589 30,000  Level FlightAware
07:12AM 48.4050 22.0400 323° Northwest 509 586 30,000  Level FlightAware
07:13AM 48.4740 21.9640 324° Northwest 508 585 30,000  Level FlightAware
07:13AM 48.5630 21.8680 324° Northwest 511 588 30,000  Level FlightAware
07:14AM 48.6390 21.7860 325° Northwest 512 589 30,000  Level FlightAware
07:15AM 48.7230 21.6930 324° Northwest 511 588 30,000  Level FlightAware
07:16AM 48.8040 21.6040 324° Northwest 512 589 30,000  Level FlightAware
07:16AM 48.8840 21.5150 324° Northwest 511 588 30,000  Level FlightAware
07:17AM 48.9660 21.4250 324° Northwest 511 588 30,000  Level FlightAware
07:18AM 49.0450 21.3380 324° Northwest 512 589 30,000  Level FlightAware
07:18AM 49.1250 21.2470 323° Northwest 507 583 30,000  Level FlightAware
07:19AM 49.2010 21.1630 324° Northwest 506 582 30,000  Level FlightAware
07:20AM 49.2800 21.0870 328° Northwest 509 586 30,000  Level FlightAware
07:20AM 49.3800 21.0440 344° North 513 590 30,000  Level FlightAware
07:21AM 49.4790 21.0050 346° North 516 594 30,000  Level FlightAware
07:22AM 49.5720 20.9660 345° North 513 590 30,000  Level FlightAware
07:23AM 49.6720 20.9190 343° North 512 589 30,000  Level FlightAware
07:23AM 49.7480 20.8550 331° Northwest 511 588 30,000  Level FlightAware
07:24AM 49.8370 20.7620 326° Northwest 505 581 30,000  Level FlightAware
07:25AM 49.9220 20.6730 326° Northwest 504 580 30,000  Level FlightAware
07:25AM 50.0000 20.5860 324° Northwest 506 582 30,000  Level FlightAware
07:26AM 50.0780 20.4820 319° Northwest 506 582 30,000  Level FlightAware
07:27AM 50.1450 20.3710 313° West 505 581 30,000  Level FlightAware
07:27AM 50.2090 20.2600 312° West 507 583 30,000  Level FlightAware
07:28AM 50.2720 20.1510 312° West 507 583 30,000  Level FlightAware
07:29AM 50.3470 20.0520 320° Northwest 510 587 30,000  Level FlightAware
07:29AM 50.4260 19.9680 326° Northwest 508 585 30,000  Level FlightAware
07:30AM 50.5160 19.8720 326° Northwest 507 583 30,000  Level FlightAware
07:31AM 50.5890 19.7930 326° Northwest 506 582 30,000  Level FlightAware
07:32AM 50.6740 19.7020 326° Northwest 507 583 30,000  Level FlightAware
07:32AM 50.7580 19.6110 326° Northwest 504 580 30,000  Level FlightAware
07:33AM 50.8340 19.5290 326° Northwest 505 581 30,000  Level FlightAware
07:34AM 50.9180 19.4370 325° Northwest 505 581 30,000  Level FlightAware
07:34AM 50.9950 19.3530 326° Northwest 505 581 30,000  Level FlightAware
07:35AM 51.0760 19.2640 325° Northwest 505 581 30,000  Level FlightAware
07:36AM 51.1610 19.1690 325° Northwest 505 581 30,000  Level FlightAware
07:36AM 51.2350 19.0870 325° Northwest 507 583 30,000  Level FlightAware
07:37AM 51.3180 18.9940 325° Northwest 508 585 30,000  Level FlightAware
07:38AM 51.3940 18.9100 325° Northwest 508 585 30,000  Level FlightAware
07:39AM 51.4830 18.8090 325° Northwest 509 586 30,000  Level FlightAware
07:39AM 51.5640 18.7170 325° Northwest 509 586 30,000  Level FlightAware
07:40AM 51.6440 18.6270 325° Northwest 511 588 30,000  Level FlightAware
07:41AM 51.7220 18.5390 325° Northwest 511 588 30,000  Level FlightAware
07:41AM 51.8060 18.4420 324° Northwest 511 588 30,000  Level FlightAware
07:42AM 51.8840 18.3520 325° Northwest 512 589 30,000  Level FlightAware
07:43AM 51.9640 18.2600 325° Northwest 513 590 30,000  Level FlightAware
07:43AM 52.0410 18.1700 324° Northwest 513 590 30,000  Level FlightAware
07:44AM 52.1210 18.0770 324° Northwest 514 592 30,000  Level FlightAware
07:45AM 52.2000 17.9840 324° Northwest 515 593 30,000  Level FlightAware
07:46AM 52.2900 17.8780 324° Northwest 514 592 30,000  Level FlightAware
07:48AM 52.4959 17.6401 325° Northwest  Level Estimated
07:49AM 52.6050 17.5129 325° Northwest  Level Estimated
07:50AM 52.7140 17.3851 325° Northwest  Level Estimated
07:51AM 52.8228 17.2566 325° Northwest  Level Estimated
07:52AM 52.9315 17.1275 324° Northwest  Level Estimated
07:53AM 53.0401 16.9977 324° Northwest  Level Estimated
07:53AM 53.0550 16.9560 324° Northwest 508 585 30,000  Level FlightAware
07:54AM 53.0980 16.9000 322° Northwest 501 577 30,000  Level FlightAware
07:55AM 53.0830 16.9210 140° Southeast 509 586 30,000  Level FlightAware
07:55AM 53.1220 16.8730 324° Northwest 508 585 30,000  Level FlightAware
07:56AM 53.2150 16.7570 323° Northwest 511 588 30,000  Level FlightAware
07:57AM 53.3180 16.6280 323° Northwest 511 588 30,000  Level FlightAware
07:57AM 53.6220 16.2440 323° Northwest 508 585 30,000  Level FlightAware
07:58AM 53.7090 16.1320 323° Northwest 509 586 30,000  Level FlightAware
07:59AM 53.7960 16.0210 323° Northwest 513 590 30,000  Level FlightAware
08:00AM 53.8750 15.9190 323° Northwest 514 592 30,000  Level FlightAware
08:00AM 53.9160 15.8660 323° Northwest 515 593 30,000 120 Level FlightAware
08:02AM 54.0857 15.6513 323° Northwest  Level Estimated
08:05AM 54.4077 15.2342 323° Northwest  Level Estimated
08:06AM 54.5141 15.0949 323° Northwest  Level Estimated
08:07AM 54.6204 14.9548 323° Northwest  Level Estimated
08:08AM 54.7265 14.8140 323° Northwest  Level Estimated
08:09AM 54.8325 14.6724 322° Northwest  Level Estimated
08:10AM 54.9382 14.5302 322° Northwest  Level Estimated
08:11AM 55.0439 14.3871 322° Northwest  Level Estimated
08:12AM 55.1493 14.2433 322° Northwest  Level Estimated
08:13AM 55.2546 14.0988 322° Northwest  Level Estimated
08:14AM 55.3597 13.9534 322° Northwest  Level Estimated
08:14AM 55.3930 13.6880 322° Northwest 492 566 32,000  Level FlightAware
08:15AM 55.4250 13.6270 313° West 492 566 32,000  Level FlightAware
08:16AM 55.4000 13.6740 133° Southeast 492 566 32,000  Level FlightAware
08:17AM 55.4470 13.5880 314° West 491 565 32,000  Level FlightAware
08:17AM 55.4750 13.5360 314° West 489 563 32,000  Level FlightAware
08:18AM 55.5400 13.4170 314° West 481 554 32,000  Level FlightAware
08:19AM 55.8050 12.9230 314° West 476 548 32,000  Level FlightAware
08:20AM 55.9210 12.6990 313° West 475 547 32,000  Level FlightAware
08:20AM 55.9480 12.6470 313° West 475 547 32,000  Level FlightAware
08:20AM 56.0050 12.5360 313° West 477 549 32,000  Level FlightAware
08:22AM 56.0160 12.5150 321° Northwest 477 549 32,000  Level FlightAware
08:23AM 56.2182 12.2205 321° Northwest  Level Estimated
08:23AM 56.2450 12.0660 313° West 477 549 32,000  Level FlightAware
08:24AM 56.3000 11.9560 312° West 475 547 32,000  Level FlightAware
08:25AM 56.3700 11.8160 312° West 475 547 32,000  Level FlightAware
08:25AM 56.4340 11.6860 312° West 475 547 32,000  Level FlightAware
08:26AM 56.5100 11.5320 312° West 475 547 32,000  Level FlightAware
08:27AM 56.5720 11.4060 312° West 474 545 32,000  Level FlightAware
08:28AM 56.6360 11.2750 312° West 476 548 32,000  Level FlightAware
08:28AM 56.6940 11.1550 311° West 475 547 32,000  Level FlightAware
08:29AM 56.7550 11.0290 311° West 476 548 32,000  Level FlightAware
08:30AM 56.8190 10.8970 312° West 476 548 32,000  Level FlightAware
08:30AM 56.8270 10.8790 309° West 476 548 32,000  Level FlightAware
08:31AM 56.9440 10.6350 311° West 477 549 32,000  Level FlightAware
08:32AM 57.0040 10.5070 311° West 478 550 32,000  Level FlightAware
08:33AM 57.0670 10.3730 311° West 480 552 32,000  Level FlightAware
08:33AM 57.1250 10.2480 311° West 480 552 32,000  Level FlightAware
08:34AM 57.1860 10.1180 311° West 482 555 32,000  Level FlightAware
08:35AM 57.2440 9.9910 310° West 483 556 32,000  Level FlightAware
08:35AM 57.3080 9.8540 311° West 483 556 32,000  Level FlightAware
08:36AM 57.3670 9.7250 310° West 483 556 32,000  Level FlightAware
08:37AM 57.4270 9.5930 310° West 484 557 32,000  Level FlightAware
08:37AM 57.4880 9.4580 310° West 485 558 32,000  Level FlightAware
08:38AM 57.5510 9.3160 310° West 486 559 32,000  Level FlightAware
08:39AM 57.6090 9.1870 310° West 487 560 32,000  Level FlightAware
08:40AM 57.6670 9.0570 310° West 487 560 32,000  Level FlightAware
08:40AM 57.7420 8.8850 309° West 487 560 32,000  Level FlightAware
08:41AM 57.8100 8.7320 310° West 488 562 32,000  Level FlightAware
08:42AM 57.8680 8.5990 309° West 490 564 32,000  Level FlightAware
08:42AM 57.9210 8.4770 309° West 491 565 32,000  Level FlightAware
08:43AM 57.9850 8.3290 309° West 493 567 32,000  Level FlightAware
08:44AM 58.0430 8.1940 309° West 490 564 32,000  Level FlightAware
08:45AM 58.1100 8.0360 309° West 491 565 32,000  Level FlightAware
08:45AM 58.1520 7.9380 309° West 493 567 32,000  Level FlightAware
08:46AM 58.2300 7.7520 309° West 501 577 32,000  Level FlightAware
08:47AM 58.2850 7.6210 309° West 501 577 32,000  Level FlightAware
08:47AM 58.3510 7.4610 308° West 501 577 32,000  Level FlightAware
08:48AM 58.4090 7.3210 308° West 502 578 32,000  Level FlightAware
08:49AM 58.4680 7.1770 308° West 504 580 32,000  Level FlightAware
08:50AM 58.5330 7.0190 308° West 507 583 32,000  Level FlightAware
08:50AM 58.5890 6.8790 308° West 507 583 32,000 120 Level FlightAware
08:51AM 58.6520 6.7240 308° West 506 582 32,200 420 Climbing FlightAware
08:52AM 58.7080 6.5840 308° West 510 587 32,600 600 Climbing FlightAware
08:52AM 58.7760 6.4140 308° West 518 596 33,100 600 Climbing FlightAware
08:53AM 58.8280 6.2830 308° West 516 594 33,500 660 Climbing FlightAware
08:54AM 58.8900 6.1250 307° West 505 581 34,000 300 Climbing FlightAware
08:54AM 58.9520 5.9660 307° West 499 574 34,000  Level FlightAware
08:55AM 59.0120 5.8090 307° West 498 573 34,000  Level FlightAware
08:56AM 59.0670 5.6680 307° West 498 573 34,000  Level FlightAware
08:56AM 59.1170 5.5370 307° West 499 574 34,000  Level FlightAware
08:57AM 59.1860 5.3560 307° West 501 577 34,000  Level FlightAware
08:58AM 59.2390 5.2140 306° West 502 578 34,000  Level FlightAware
08:59AM 59.2949 5.0678 306° West 490 564 34,000  Level FlightAware UK
08:59AM 59.2940 5.0680 306° West 504 580 34,000  Level FlightAware
08:59AM 59.3580 4.8970 306° West 507 583 34,000  Level FlightAware
09:00AM 59.4080 4.7640 306° West 507 583 34,000  Level FlightAware
09:01AM 59.4740 4.5840 306° West 508 585 34,000  Level FlightAware
09:01AM 59.5260 4.4410 306° West 510 587 34,000  Level FlightAware
09:02AM 59.5752 4.3076 306° West 490 564 34,000  Level FlightAware UK
09:02AM 59.5810 4.2900 306° West 511 588 34,000  Level FlightAware
09:03AM 59.6380 4.1320 306° West 511 588 34,000  Level FlightAware
09:03AM 59.6893 3.9893 306° West 490 564 34,000  Level FlightAware UK
09:04AM 59.7010 3.9560 306° West 511 588 34,000  Level FlightAware
09:04AM 59.7456 3.8285 306° West 490 564 34,000  Level FlightAware UK
09:04AM 59.7610 3.7870 306° West 513 590 34,000  Level FlightAware
09:05AM 59.8106 3.6452 306° West 490 564 34,000  Level FlightAware UK
09:05AM 59.8180 3.6250 306° West 514 592 34,000  Level FlightAware
09:06AM 59.8681 3.4827 306° West 490 564 34,000  Level FlightAware UK
09:06AM 59.8740 3.4650 306° West 514 592 34,000  Level FlightAware
09:06AM 59.9170 3.3441 306° West 488 562 34,000  Level FlightAware UK
09:06AM 59.9230 3.3260 306° West 514 592 34,000  Level FlightAware
09:07AM 59.9880 3.1390 306° West 514 592 34,000  Level FlightAware
09:07AM 59.9901 3.1342 306° West 490 564 34,000  Level FlightAware UK
09:08AM 60.0394 2.9927 306° West 490 564 34,000  Level FlightAware UK
09:08AM 60.0420 2.9810 306° West 515 593 34,000  Level FlightAware
09:08AM 60.0850 2.8560 305° West 515 593 34,000  Level FlightAware
09:09AM 60.1349 2.7098 305° West 488 562 34,000  Level FlightAware UK
09:09AM 60.1360 2.7050 305° West 516 594 34,000  Level FlightAware
09:10AM 60.1950 2.5300 304° West 516 594 34,000  Level FlightAware
09:10AM 60.2470 2.3750 304° West 516 594 34,000  Level FlightAware
09:11AM 60.3270 2.1340 304° West 515 593 34,000  Level FlightAware
09:12AM 60.3760 1.9840 304° West 515 593 34,000  Level FlightAware
09:13AM 60.4540 1.7450 304° West 513 590 34,000  Level FlightAware
09:14AM 60.4980 1.6070 303° West 513 590 34,000  Level FlightAware
09:14AM 60.5560 1.4300 304° West 517 595 34,000  Level FlightAware
09:15AM 60.6170 1.2390 303° West 517 595 34,000  Level FlightAware
09:16AM 60.6850 1.0230 303° West 513 590 34,000  Level FlightAware
09:17AM 60.7370 0.8570 303° West 514 592 34,000  Level FlightAware
09:17AM 60.7950 0.6720 303° West 519 597 34,000  Level FlightAware
09:18AM 60.8390 0.5300 302° West 519 597 34,000  Level FlightAware
09:19AM 60.8970 0.3410 302° West 517 595 34,000  Level FlightAware
09:19AM 60.9430 0.1880 302° West 517 595 34,000  Level FlightAware
09:21AM 61.0570 -0.1000 309° West 522 601 34,000  Level FlightAware
09:21AM 61.1110 -0.2040 317° Northwest 522 601 34,000  Level FlightAware
09:22AM 61.1800 -0.3380 317° Northwest 522 601 34,000  Level FlightAware
09:23AM 61.2360 -0.4450 317° Northwest 522 601 34,000  Level FlightAware
09:23AM 61.3020 -0.5730 317° Northwest 522 601 34,000  Level FlightAware
09:25AM 61.5340 -0.9990 319° Northwest 522 601 34,000  Level FlightAware
09:26AM 61.6640 -1.2790 314° West 524 603 34,000  Level FlightAware
09:27AM 61.7160 -1.3910 314° West 524 603 34,000  Level FlightAware
09:28AM 61.7850 -1.5420 314° West 524 603 34,000  Level FlightAware
09:29AM 61.8500 -1.6860 314° West 524 603 34,000  Level FlightAware
09:29AM 61.9050 -1.8060 314° West 524 603 34,000  Level FlightAware
09:30AM 61.9650 -1.9380 314° West 524 603 34,000  Level FlightAware
09:31AM 62.0180 -2.0550 314° West 524 603 34,000  Level FlightAware
09:31AM 62.0870 -2.2070 314° West 524 603 34,000  Level FlightAware
09:32AM 62.1390 -2.3240 314° West 524 603 34,000  Level FlightAware
09:33AM 62.2270 -2.5180 314° West 524 603 34,000  Level FlightAware
09:34AM 62.2780 -2.6320 314° West 524 603 34,000  Level FlightAware
09:34AM 62.3500 -2.7920 314° West 524 603 34,000  Level FlightAware
09:35AM 62.4000 -2.9040 314° West 524 603 34,000  Level FlightAware
09:36AM 62.4700 -3.0610 314° West 524 603 34,000  Level FlightAware
09:38AM 62.6048 -3.4459 307° West  Level Estimated
09:39AM 62.6852 -3.6786 307° West  Level Estimated
09:40AM 62.7652 -3.9125 307° West  Level Estimated
09:41AM 62.8449 -4.1476 307° West  Level Estimated
09:42AM 62.9241 -4.3841 306° West  Level Estimated
09:43AM 63.0029 -4.6218 306° West  Level Estimated
09:44AM 63.0813 -4.8608 306° West  Level Estimated
09:45AM 63.1593 -5.1011 306° West  Level Estimated
09:46AM 63.2369 -5.3427 306° West  Level Estimated
09:47AM 63.3142 -5.5856 305° West  Level Estimated
09:48AM 63.3909 -5.8298 305° West  Level Estimated
09:49AM 63.4673 -6.0753 305° West  Level Estimated
09:50AM 63.5432 -6.3221 305° West  Level Estimated
09:51AM 63.6187 -6.5702 304° West  Level Estimated
09:52AM 63.6938 -6.8196 304° West  Level Estimated
09:53AM 63.7685 -7.0704 304° West  Level Estimated
09:54AM 63.8427 -7.3225 304° West  Level Estimated
09:55AM 63.9165 -7.5759 304° West  Level Estimated
09:56AM 63.9898 -7.8306 303° West  Level Estimated
09:57AM 64.0627 -8.0867 303° West  Level Estimated
09:58AM 64.1351 -8.3441 303° West  Level Estimated
09:59AM 64.2071 -8.6029 303° West  Level Estimated
10:00AM 64.2786 -8.8630 302° West  Level Estimated
10:01AM 64.3496 -9.1244 302° West  Level Estimated
10:02AM 64.4202 -9.3872 302° West  Level Estimated
10:03AM 64.4903 -9.6514 302° West  Level Estimated
10:04AM 64.5599 -9.9169 301° West  Level Estimated
10:05AM 64.6291 -10.1838 301° West  Level Estimated
10:06AM 64.6978 -10.4520 301° West  Level Estimated
10:07AM 64.7659 -10.7216 301° West  Level Estimated
10:08AM 64.8336 -10.9925 301° West  Level Estimated
10:09AM 64.9008 -11.2648 300° West  Level Estimated
10:10AM 64.9675 -11.5385 300° West  Level Estimated
10:11AM 65.0337 -11.8135 300° West  Level Estimated
10:12AM 65.0994 -12.0899 300° West  Level Estimated
10:13AM 65.1646 -12.3676 299° West  Level Estimated
10:14AM 65.2292 -12.6467 299° West  Level Estimated
10:15AM 65.2933 -12.9272 299° West  Level Estimated
10:16AM 65.3569 -13.2091 299° West  Level Estimated
10:17AM 65.4200 -13.4923 298° West  Level Estimated
10:18AM 65.4826 -13.7768 298° West  Level Estimated
10:19AM 65.5446 -14.0627 298° West  Level Estimated
10:20AM 65.6060 -14.3500 297° West  Level Estimated
10:21AM 65.6670 -14.6387 297° West  Level Estimated
10:22AM 65.7274 -14.9286 297° West  Level Estimated
10:23AM 65.7872 -15.2200 297° West  Level Estimated
10:24AM 65.8465 -15.5127 296° West  Level Estimated
10:25AM 65.9052 -15.8067 296° West  Level Estimated
10:26AM 65.9633 -16.1021 296° West  Level Estimated
10:27AM 66.0209 -16.3988 296° West  Level Estimated
10:28AM 66.0779 -16.6969 295° West  Level Estimated
10:29AM 66.1343 -16.9963 295° West  Level Estimated
10:30AM 66.1902 -17.2970 295° West  Level Estimated
10:31AM 66.2454 -17.5991 295° West  Level Estimated
10:32AM 66.3001 -17.9024 294° West  Level Estimated
10:33AM 66.3542 -18.2071 294° West  Level Estimated
10:34AM 66.4077 -18.5131 294° West  Level Estimated
10:35AM 66.4605 -18.8204 293° West  Level Estimated
10:36AM 66.5128 -19.1290 293° West  Level Estimated
10:37AM 66.5645 -19.4389 293° West  Level Estimated
10:38AM 66.6155 -19.7500 293° West  Level Estimated
10:39AM 66.6659 -20.0625 292° West  Level Estimated
10:40AM 66.7158 -20.3762 292° West  Level Estimated
10:41AM 66.7649 -20.6912 292° West  Level Estimated
10:42AM 66.8135 -21.0074 291° West  Level Estimated
10:43AM 66.8614 -21.3249 291° West  Level Estimated
10:44AM 66.9087 -21.6436 291° West  Level Estimated
10:45AM 66.9553 -21.9635 291° West  Level Estimated
10:46AM 67.0013 -22.2847 290° West  Level Estimated
10:47AM 67.0466 -22.6070 290° West  Level Estimated
10:48AM 67.0913 -22.9306 290° West  Level Estimated
10:49AM 67.1354 -23.2554 289° West  Level Estimated
10:50AM 67.1787 -23.5813 289° West  Level Estimated
10:51AM 67.2214 -23.9084 289° West  Level Estimated
10:52AM 67.2635 -24.2366 288° West  Level Estimated
10:53AM 67.3048 -24.5660 288° West  Level Estimated
10:54AM 67.3455 -24.8965 288° West  Level Estimated
10:55AM 67.3855 -25.2282 288° West  Level Estimated
10:56AM 67.4248 -25.5609 287° West  Level Estimated
10:57AM 67.4634 -25.8948 287° West  Level Estimated
10:58AM 67.5014 -26.2297 287° West  Level Estimated
10:59AM 67.5386 -26.5656 286° West  Level Estimated
11:00AM 67.5752 -26.9027 286° West  Level Estimated
11:01AM 67.6110 -27.2407 286° West  Level Estimated
11:02AM 67.6462 -27.5798 285° West  Level Estimated
11:03AM 67.6806 -27.9198 285° West  Level Estimated
11:04AM 67.7143 -28.2609 285° West  Level Estimated
11:05AM 67.7473 -28.6029 284° West  Level Estimated
11:06AM 67.7796 -28.9459 284° West  Level Estimated
11:07AM 67.8112 -29.2898 284° West  Level Estimated
11:08AM 67.8420 -29.6347 283° West  Level Estimated
11:09AM 67.8722 -29.9804 283° West  Level Estimated
11:10AM 67.9016 -30.3270 283° West  Level Estimated
11:11AM 67.9302 -30.6745 283° West  Level Estimated
11:12AM 67.9581 -31.0229 282° West  Level Estimated
11:13AM 67.9853 -31.3721 282° West  Level Estimated
11:14AM 68.0118 -31.7220 282° West  Level Estimated
11:15AM 68.0375 -32.0728 281° West  Level Estimated
11:16AM 68.0624 -32.4244 281° West  Level Estimated
11:17AM 68.0866 -32.7766 281° West  Level Estimated
11:18AM 68.1101 -33.1297 280° West  Level Estimated
11:19AM 68.1328 -33.4834 280° West  Level Estimated
11:20AM 68.1547 -33.8378 280° West  Level Estimated
11:21AM 68.1759 -34.1929 279° West  Level Estimated
11:22AM 68.1963 -34.5486 279° West  Level Estimated
11:23AM 68.2160 -34.9049 279° West  Level Estimated
11:24AM 68.2348 -35.2619 278° West  Level Estimated
11:25AM 68.2530 -35.6194 278° West  Level Estimated
11:26AM 68.2703 -35.9775 278° West  Level Estimated
11:27AM 68.2869 -36.3361 277° West  Level Estimated
11:28AM 68.3027 -36.6952 277° West  Level Estimated
11:29AM 68.3178 -37.0549 277° West  Level Estimated
11:30AM 68.3320 -37.4149 276° West  Level Estimated
11:31AM 68.3455 -37.7754 276° West  Level Estimated
11:32AM 68.3582 -38.1364 276° West  Level Estimated
11:33AM 68.3702 -38.4977 275° West  Level Estimated
11:34AM 68.3813 -38.8594 275° West  Level Estimated
11:35AM 68.3917 -39.2214 275° West  Level Estimated
11:36AM 68.4013 -39.5838 274° West  Level Estimated
11:37AM 68.4100 -39.9464 274° West  Level Estimated
11:38AM 68.4181 -40.3093 274° West  Level Estimated
11:39AM 68.4253 -40.6725 273° West  Level Estimated
11:40AM 68.4317 -41.0358 273° West  Level Estimated
11:41AM 68.4374 -41.3994 273° West  Level Estimated
11:42AM 68.4422 -41.7631 272° West  Level Estimated
11:43AM 68.4463 -42.1270 272° West  Level Estimated
11:44AM 68.4496 -42.4910 272° West  Level Estimated
11:45AM 68.4521 -42.8551 271° West  Level Estimated
11:46AM 68.4538 -43.2192 271° West  Level Estimated
11:47AM 68.4547 -43.5835 271° West  Level Estimated
11:48AM 68.4548 -43.9477 270° West  Level Estimated
11:49AM 68.4541 -44.3119 270° West  Level Estimated
11:50AM 68.4526 -44.6760 270° West  Level Estimated
11:51AM 68.4504 -45.0401 269° West  Level Estimated
11:52AM 68.4473 -45.4042 269° West  Level Estimated
11:53AM 68.4435 -45.7681 269° West  Level Estimated
11:54AM 68.4389 -46.1319 268° West  Level Estimated
11:55AM 68.4334 -46.4955 268° West  Level Estimated
11:56AM 68.4272 -46.8589 268° West  Level Estimated
11:57AM 68.4202 -47.2221 267° West  Level Estimated
11:58AM 68.4125 -47.5851 267° West  Level Estimated
11:59AM 68.4039 -47.9478 266° West  Level Estimated
12:00PM 68.3945 -48.3103 266° West  Level Estimated
12:01PM 68.3844 -48.6724 266° West  Level Estimated
12:02PM 68.3735 -49.0342 265° West  Level Estimated
12:03PM 68.3618 -49.3956 265° West  Level Estimated
12:04PM 68.3493 -49.7567 265° West  Level Estimated
12:05PM 68.3361 -50.1173 264° West  Level Estimated
12:06PM 68.3220 -50.4775 264° West  Level Estimated
12:07PM 68.3072 -50.8372 264° West  Level Estimated
12:08PM 68.2916 -51.1965 263° West  Level Estimated
12:09PM 68.2753 -51.5553 263° West  Level Estimated
12:10PM 68.2581 -51.9135 263° West  Level Estimated
12:11PM 68.2402 -52.2712 262° West  Level Estimated
12:12PM 68.2216 -52.6283 262° West  Level Estimated
12:13PM 68.2021 -52.9849 262° West  Level Estimated
12:14PM 68.1819 -53.3408 261° West  Level Estimated
12:15PM 68.1610 -53.6960 261° West  Level Estimated
12:16PM 68.1392 -54.0506 261° West  Level Estimated
12:17PM 68.1168 -54.4046 260° West  Level Estimated
12:18PM 68.0935 -54.7578 260° West  Level Estimated
12:19PM 68.0695 -55.1103 260° West  Level Estimated
12:20PM 68.0448 -55.4621 260° West  Level Estimated
12:21PM 68.0193 -55.8131 259° West  Level Estimated
12:22PM 67.9931 -56.1633 259° West  Level Estimated
12:23PM 67.9661 -56.5127 259° West  Level Estimated
12:24PM 67.9384 -56.8613 258° West  Level Estimated
12:25PM 67.9100 -57.2090 258° West  Level Estimated
12:26PM 67.8808 -57.5559 258° West  Level Estimated
12:27PM 67.8509 -57.9019 257° West  Level Estimated
12:28PM 67.8203 -58.2470 257° West  Level Estimated
12:29PM 67.7889 -58.5912 257° West  Level Estimated
12:30PM 67.7568 -58.9344 256° West  Level Estimated
12:31PM 67.7240 -59.2768 256° West  Level Estimated
12:32PM 67.6905 -59.6181 256° West  Level Estimated
12:33PM 67.6563 -59.9585 255° West  Level Estimated
12:34PM 67.6213 -60.2978 255° West  Level Estimated
12:35PM 67.5857 -60.6362 255° West  Level Estimated
12:36PM 67.5493 -60.9735 254° West  Level Estimated
12:37PM 67.5123 -61.3098 254° West  Level Estimated
12:38PM 67.4746 -61.6450 254° West  Level Estimated
12:39PM 67.4361 -61.9792 253° West  Level Estimated
12:40PM 67.3970 -62.3122 253° West  Level Estimated
12:41PM 67.3572 -62.6442 253° West  Level Estimated
12:42PM 67.3167 -62.9750 253° West  Level Estimated
12:43PM 67.2756 -63.3047 252° West  Level Estimated
12:44PM 67.2337 -63.6333 252° West  Level Estimated
12:45PM 67.1912 -63.9608 252° West  Level Estimated
12:46PM 67.1481 -64.2870 251° West  Level Estimated
12:47PM 67.1042 -64.6121 251° West  Level Estimated
12:48PM 67.0597 -64.9360 251° West  Level Estimated
12:49PM 67.0146 -65.2588 250° West  Level Estimated
12:50PM 66.9688 -65.5803 250° West  Level Estimated
12:51PM 66.9223 -65.9006 250° West  Level Estimated
12:52PM 66.8753 -66.2196 250° West  Level Estimated
12:53PM 66.8275 -66.5375 249° West  Level Estimated
12:54PM 66.7792 -66.8541 249° West  Level Estimated
12:55PM 66.7302 -67.1694 249° West  Level Estimated
12:56PM 66.6805 -67.4835 248° West  Level Estimated
12:57PM 66.6303 -67.7963 248° West  Level Estimated
12:58PM 66.5794 -68.1078 248° West  Level Estimated
12:59PM 66.5279 -68.4181 248° West  Level Estimated
01:00PM 66.4759 -68.7271 247° West  Level Estimated
01:01PM 66.4231 -69.0348 247° West  Level Estimated
01:02PM 66.3699 -69.3411 247° West  Level Estimated
01:03PM 66.3159 -69.6462 246° West  Level Estimated
01:04PM 66.2615 -69.9499 246° West  Level Estimated
01:05PM 66.2064 -70.2524 246° West  Level Estimated
01:06PM 66.1507 -70.5535 246° West  Level Estimated
01:07PM 66.0944 -70.8533 245° Southwest  Level Estimated
01:08PM 66.0376 -71.1517 245° Southwest  Level Estimated
01:09PM 65.9802 -71.4488 245° Southwest  Level Estimated
01:10PM 65.9222 -71.7446 244° Southwest  Level Estimated
01:11PM 65.8636 -72.0390 244° Southwest  Level Estimated
01:12PM 65.8045 -72.3321 244° Southwest  Level Estimated
01:13PM 65.7449 -72.6239 244° Southwest  Level Estimated
01:14PM 65.6846 -72.9143 243° Southwest  Level Estimated
01:15PM 65.6239 -73.2033 243° Southwest  Level Estimated
01:16PM 65.5626 -73.4910 243° Southwest  Level Estimated
01:17PM 65.5007 -73.7773 243° Southwest  Level Estimated
01:18PM 65.4383 -74.0622 242° Southwest  Level Estimated
01:19PM 65.3754 -74.3458 242° Southwest  Level Estimated
01:20PM 65.3119 -74.6281 242° Southwest  Level Estimated
01:21PM 65.2479 -74.9090 242° Southwest  Level Estimated
01:22PM 65.1834 -75.1885 241° Southwest  Level Estimated
01:23PM 65.1184 -75.4666 241° Southwest  Level Estimated
01:24PM 65.0529 -75.7434 241° Southwest  Level Estimated
01:25PM 64.9869 -76.0188 241° Southwest  Level Estimated
01:26PM 64.9203 -76.2929 240° Southwest  Level Estimated
01:27PM 64.8533 -76.5656 240° Southwest  Level Estimated
01:28PM 64.7857 -76.8369 240° Southwest  Level Estimated
01:29PM 64.7177 -77.1069 240° Southwest  Level Estimated
01:30PM 64.6492 -77.3755 239° Southwest  Level Estimated
01:31PM 64.5801 -77.6428 239° Southwest  Level Estimated
01:32PM 64.5107 -77.9087 239° Southwest  Level Estimated
01:33PM 64.4407 -78.1732 239° Southwest  Level Estimated
01:34PM 64.3702 -78.4364 238° Southwest  Level Estimated
01:35PM 64.2993 -78.6983 238° Southwest  Level Estimated
01:36PM 64.2280 -78.9588 238° Southwest  Level Estimated
01:37PM 64.1561 -79.2179 238° Southwest  Level Estimated
01:38PM 64.0838 -79.4758 237° Southwest  Level Estimated
01:39PM 64.0111 -79.7322 237° Southwest  Level Estimated
01:40PM 63.9379 -79.9874 237° Southwest  Level Estimated
01:41PM 63.8643 -80.2412 237° Southwest  Level Estimated
01:42PM 63.7902 -80.4936 236° Southwest  Level Estimated
01:43PM 63.7156 -80.7448 236° Southwest  Level Estimated
01:44PM 63.6407 -80.9946 236° Southwest  Level Estimated
01:45PM 63.5653 -81.2431 236° Southwest  Level Estimated
01:46PM 63.4895 -81.4903 236° Southwest  Level Estimated
01:47PM 63.4132 -81.7362 235° Southwest  Level Estimated
01:48PM 63.3366 -81.9808 235° Southwest  Level Estimated
01:49PM 63.2595 -82.2240 235° Southwest  Level Estimated
01:50PM 63.1820 -82.4660 235° Southwest  Level Estimated
01:51PM 63.1041 -82.7067 234° Southwest  Level Estimated
01:52PM 63.0258 -82.9460 234° Southwest  Level Estimated
01:53PM 62.9471 -83.1841 234° Southwest  Level Estimated
01:54PM 62.8680 -83.4210 234° Southwest  Level Estimated
01:55PM 62.7885 -83.6565 234° Southwest  Level Estimated
01:56PM 62.7086 -83.8908 233° Southwest  Level Estimated
01:57PM 62.6283 -84.1238 233° Southwest  Level Estimated
01:58PM 62.5476 -84.3555 233° Southwest  Level Estimated
01:59PM 62.4666 -84.5860 233° Southwest  Level Estimated
02:00PM 62.3852 -84.8152 233° Southwest  Level Estimated
02:01PM 62.3034 -85.0432 232° Southwest  Level Estimated
02:02PM 62.2212 -85.2700 232° Southwest  Level Estimated
02:03PM 62.1386 -85.4955 232° Southwest  Level Estimated
02:04PM 62.0558 -85.7198 232° Southwest  Level Estimated
02:05PM 61.9725 -85.9429 232° Southwest  Level Estimated
02:06PM 61.8900 -86.1617 231° Southwest  Level Estimated
02:07PM 61.8072 -86.3793 231° Southwest  Level Estimated
02:08PM 61.7240 -86.5957 231° Southwest  Level Estimated
02:09PM 61.6405 -86.8110 231° Southwest  Level Estimated
02:10PM 61.5567 -87.0251 231° Southwest  Level Estimated
02:11PM 61.4725 -87.2381 230° Southwest  Level Estimated
02:12PM 61.3880 -87.4499 230° Southwest  Level Estimated
02:13PM 61.3032 -87.6606 230° Southwest  Level Estimated
02:14PM 61.2181 -87.8701 230° Southwest  Level Estimated
02:15PM 61.1326 -88.0785 230° Southwest  Level Estimated
02:16PM 61.0468 -88.2858 230° Southwest  Level Estimated
02:17PM 60.9607 -88.4920 229° Southwest  Level Estimated
02:18PM 60.8743 -88.6970 229° Southwest  Level Estimated
02:19PM 60.7875 -88.9009 229° Southwest  Level Estimated
02:20PM 60.7005 -89.1038 229° Southwest  Level Estimated
02:21PM 60.6132 -89.3055 229° Southwest  Level Estimated
02:22PM 60.5255 -89.5061 228° Southwest  Level Estimated
02:23PM 60.4376 -89.7057 228° Southwest  Level Estimated
02:24PM 60.3493 -89.9042 228° Southwest  Level Estimated
02:25PM 60.2608 -90.1015 228° Southwest  Level Estimated
02:26PM 60.1720 -90.2979 228° Southwest  Level Estimated
02:27PM 60.0829 -90.4932 228° Southwest  Level Estimated
02:28PM 59.9935 -90.6874 227° Southwest  Level Estimated
02:29PM 59.9038 -90.8805 227° Southwest  Level Estimated
02:30PM 59.8138 -91.0727 227° Southwest  Level Estimated
02:31PM 59.7236 -91.2638 227° Southwest  Level Estimated
02:32PM 59.6331 -91.4538 227° Southwest  Level Estimated
02:33PM 59.5423 -91.6429 227° Southwest  Level Estimated
02:34PM 59.4512 -91.8309 226° Southwest  Level Estimated
02:35PM 59.3599 -92.0179 226° Southwest  Level Estimated
02:36PM 59.2683 -92.2039 226° Southwest  Level Estimated
02:37PM 59.1764 -92.3889 226° Southwest  Level Estimated
02:38PM 59.0843 -92.5729 226° Southwest  Level Estimated
02:39PM 58.9919 -92.7560 226° Southwest  Level Estimated
02:40PM 58.8993 -92.9380 225° Southwest  Level Estimated
02:41PM 58.8064 -93.1191 225° Southwest  Level Estimated
02:42PM 58.7133 -93.2992 225° Southwest  Level Estimated
02:42PM 61.7500 -101.1167 224° Southwest 470 541 35,000  Level Edmonton Center
02:43PM 58.6199 -93.4783 225° Southwest  Level Estimated
02:43PM 61.6500 -101.3500 228° Southwest 470 541 35,700  Level Edmonton Center
02:44PM 58.5262 -93.6565 225° Southwest  Level Estimated
02:44PM 61.5833 -101.5667 237° Southwest 470 541 36,000  Level Edmonton Center
02:45PM 58.4323 -93.8337 225° Southwest  Level Estimated
02:45PM 61.4833 -101.7500 221° Southwest 470 541 36,000  Level Edmonton Center
02:46PM 58.3382 -94.0100 225° Southwest  Level Estimated
02:46PM 61.4000 -101.9500 229° Southwest 470 541 36,000  Level Edmonton Center
02:47PM 58.2438 -94.1854 224° Southwest  Level Estimated
02:47PM 61.3000 -102.1667 226° Southwest 470 541 36,000  Level Edmonton Center
02:48PM 61.2000 -102.3500 221° Southwest 470 541 36,000  Level Edmonton Center
02:49PM 61.1167 -102.5667 232° Southwest 470 541 36,000  Level Edmonton Center
02:50PM 61.0333 -102.7500 227° Southwest 470 541 36,000  Level Edmonton Center
02:51PM 60.9500 -102.9333 227° Southwest 470 541 36,000  Level Edmonton Center
02:52PM 60.8500 -103.1500 227° Southwest 470 541 36,000  Level Edmonton Center
02:53PM 60.7500 -103.3167 219° Southwest 470 541 36,000  Level Edmonton Center
02:54PM 60.6667 -103.5000 227° Southwest 470 541 36,000  Level Edmonton Center
02:55PM 60.5667 -103.7167 227° Southwest 470 541 36,000  Level Edmonton Center
02:56PM 60.4667 -103.9167 225° Southwest 480 552 36,000  Level Edmonton Center
02:57PM 60.3667 -104.1000 222° Southwest 480 552 36,000  Level Edmonton Center
02:58PM 60.2833 -104.3000 230° Southwest 480 552 36,000  Level Edmonton Center
02:59PM 60.1833 -104.5167 227° Southwest 480 552 36,000  Level Edmonton Center
03:00PM 60.0833 -104.6833 220° Southwest 480 552 36,000  Level Edmonton Center
03:01PM 59.9667 -104.8833 221° Southwest 490 564 36,000  Level Edmonton Center
03:02PM 59.8667 -105.0667 223° Southwest 490 564 36,000  Level Edmonton Center
03:03PM 59.7833 -105.2667 230° Southwest 490 564 36,000  Level Edmonton Center
03:04PM 59.6833 -105.4333 220° Southwest 490 564 36,000  Level Edmonton Center
03:05PM 59.5833 -105.6333 225° Southwest 490 564 36,000  Level Edmonton Center
03:06PM 59.4833 -105.8333 225° Southwest 490 564 36,000  Level Edmonton Center
03:07PM 59.3833 -106.0167 223° Southwest 490 564 36,000  Level Edmonton Center
03:08PM 59.2667 -106.1833 216° Southwest 490 564 36,000  Level Edmonton Center
03:09PM 59.1667 -106.3833 226° Southwest 480 552 36,000  Level Edmonton Center
03:10PM 59.0833 -106.5500 226° Southwest 480 552 36,000  Level Edmonton Center
03:11PM 58.9833 -106.7333 223° Southwest 480 552 36,000  Level Edmonton Center
03:12PM 58.8667 -106.9000 216° Southwest 490 564 36,000  Level Edmonton Center
03:13PM 58.7667 -107.0833 224° Southwest 480 552 36,000  Level Edmonton Center
03:14PM 58.6833 -107.2833 231° Southwest 490 564 36,000  Level Edmonton Center
03:15PM 58.5833 -107.4333 218° Southwest 490 564 36,000  Level Edmonton Center
03:16PM 58.4667 -107.6167 219° Southwest 490 564 36,000  Level Edmonton Center
03:17PM 58.3667 -107.7667 218° Southwest 490 564 36,000  Level Edmonton Center
03:18PM 58.2667 -107.9667 226° Southwest 490 564 36,000  Level Edmonton Center
03:19PM 58.1500 -108.1500 220° Southwest 490 564 36,000  Level Edmonton Center
03:20PM 58.0500 -108.3333 224° Southwest 490 564 36,000  Level Edmonton Center
03:21PM 57.9500 -108.4833 219° Southwest 490 564 36,000  Level Edmonton Center
03:23PM 57.7333 -108.8333 221° Southwest 490 564 36,000  Level Edmonton Center
03:24PM 57.6333 -108.9833 219° Southwest 490 564 36,000  Level Edmonton Center
03:25PM 57.5333 -109.1667 225° Southwest 490 564 36,000  Level Edmonton Center
03:26PM 57.4167 -109.3333 218° Southwest 490 564 36,000  Level Edmonton Center
03:27PM 57.3167 -109.5167 225° Southwest 490 564 36,000  Level Edmonton Center
03:28PM 57.2000 -109.6667 215° Southwest 490 564 36,000  Level Edmonton Center
03:29PM 57.1000 -109.8333 222° Southwest 490 564 36,000  Level Edmonton Center
03:30PM 56.9833 -110.0000 218° Southwest 490 564 36,000  Level Edmonton Center
03:31PM 56.8833 -110.1167 213° Southwest 490 564 36,000  Level Edmonton Center
03:32PM 56.7500 -110.2500 209° Southwest 490 564 36,000  Level Edmonton Center
03:33PM 56.6500 -110.4000 220° Southwest 490 564 36,000  Level Edmonton Center
03:34PM 56.5167 -110.5333 209° Southwest 490 564 36,000  Level Edmonton Center
03:35PM 56.4000 -110.6667 212° Southwest 490 564 36,000  Level Edmonton Center
03:36PM 56.2833 -110.8000 212° Southwest 500 575 36,000  Level Edmonton Center
03:37PM 56.1667 -110.9333 212° Southwest 500 575 36,000  Level Edmonton Center
03:42PM 55.4850 -111.6400 212° Southwest 505 581 36,000  Level FlightAware
03:43PM 55.3950 -111.7340 211° Southwest 505 581 36,000  Level FlightAware
03:44PM 55.3100 -111.8200 210° Southwest 504 580 36,000  Level FlightAware
03:45PM 55.2260 -111.9070 211° Southwest 502 578 36,000  Level FlightAware
03:46PM 55.1070 -112.0270 210° Southwest 496 571 36,000  Level FlightAware
03:46PM 55.0270 -112.1070 210° Southwest 493 567 36,000  Level FlightAware
03:47PM 54.8970 -112.2380 210° Southwest 491 565 36,000  Level FlightAware
03:48PM 54.8000 -112.3350 210° Southwest 490 564 36,000  Level FlightAware
03:49PM 54.7220 -112.4120 210° Southwest 491 565 36,000  Level FlightAware
03:49PM 54.6540 -112.4780 209° Southwest 491 565 36,000  Level FlightAware
03:50PM 54.5680 -112.5630 210° Southwest 491 565 36,000  Level FlightAware
03:51PM 54.4830 -112.6460 210° Southwest 493 567 36,000  Level FlightAware
03:52PM 54.3870 -112.7400 210° Southwest 495 570 36,000  Level FlightAware
03:52PM 54.3150 -112.8090 209° Southwest 496 571 36,000  Level FlightAware
03:53PM 54.2340 -112.8880 210° Southwest 495 570 36,000  Level FlightAware
03:54PM 54.1340 -112.9830 209° Southwest 494 568 36,000  Level FlightAware
03:54PM 54.0550 -113.0590 209° Southwest 496 571 36,000  Level FlightAware
03:55PM 53.9660 -113.1440 209° Southwest 496 571 36,000  Level FlightAware
03:56PM 53.8850 -113.2200 209° Southwest 496 571 36,000  Level FlightAware
03:57PM 53.8050 -113.2950 209° Southwest 496 571 36,000  Level FlightAware
03:57PM 53.7270 -113.3680 209° Southwest 502 578 36,000  Level FlightAware
03:58PM 53.6390 -113.4500 209° Southwest 504 580 36,000  Level FlightAware
03:59PM 53.5420 -113.5410 209° Southwest 504 580 36,000  Level FlightAware
03:59PM 53.4600 -113.6160 209° Southwest 506 582 36,000  Level FlightAware
04:00PM 53.3770 -113.6920 209° Southwest 508 585 36,000  Level FlightAware
04:01PM 53.2860 -113.7760 209° Southwest 503 579 36,000  Level FlightAware
04:01PM 53.2060 -113.8460 208° Southwest 502 578 36,000  Level FlightAware
04:02PM 53.1160 -113.9020 200° South 500 575 36,000  Level FlightAware
04:03PM 53.0320 -113.9430 196° South 501 577 36,000  Level FlightAware
04:04PM 52.9290 -113.9920 196° South 503 579 36,000  Level FlightAware
04:04PM 52.8390 -114.0350 196° South 505 581 36,000  Level FlightAware
04:05PM 52.7380 -114.0840 196° South 501 577 36,000  Level FlightAware
04:06PM 52.6420 -114.1300 196° South 500 575 36,000  Level FlightAware
04:06PM 52.5630 -114.1680 196° South 500 575 36,000  Level FlightAware
04:07PM 52.4500 -114.2220 196° South 500 575 36,000  Level FlightAware
04:08PM 52.3640 -114.2630 196° South 500 575 36,000  Level FlightAware
04:08PM 52.2860 -114.2990 196° South 501 577 36,000  Level FlightAware
04:09PM 52.1760 -114.3510 196° South 503 579 36,000  Level FlightAware
04:10PM 52.0860 -114.3930 196° South 502 578 36,000  Level FlightAware
04:11PM 51.9270 -114.4670 196° South 499 574 36,000  Level FlightAware
04:11PM 51.8740 -114.4910 196° South 499 574 36,000  Level FlightAware
04:12PM 51.7730 -114.5380 196° South 489 563 36,000  Level FlightAware
04:13PM 51.6750 -114.5830 196° South 486 559 36,000  Level FlightAware
04:14PM 51.5970 -114.6180 196° South 487 560 36,000  Level FlightAware
04:14PM 51.4990 -114.6630 196° South 487 560 36,000  Level FlightAware
04:15PM 51.4100 -114.7030 196° South 487 560 36,000  Level FlightAware
04:16PM 51.3230 -114.7420 196° South 487 560 36,000  Level FlightAware
04:16PM 51.2130 -114.7920 196° South 484 557 36,000  Level FlightAware
04:17PM 51.1340 -114.8270 196° South 482 555 36,000  Level FlightAware
04:18PM 51.0380 -114.8700 196° South 481 554 36,000  Level FlightAware
04:18PM 50.9490 -114.9090 195° South 481 554 36,000  Level FlightAware
04:19PM 50.8640 -114.9470 196° South 482 555 36,000  Level FlightAware
04:20PM 50.7540 -114.9950 195° South 483 556 36,000  Level FlightAware
04:21PM 50.6670 -115.0330 195° South 483 556 36,000  Level FlightAware
04:21PM 50.5910 -115.0660 195° South 483 556 36,000  Level FlightAware
04:22PM 50.4910 -115.1090 195° South 482 555 36,000  Level FlightAware
04:23PM 50.3690 -115.1620 195° South 483 556 36,000  Level FlightAware
04:24PM 50.2720 -115.2040 195° South 482 555 36,000  Level FlightAware
04:24PM 50.1860 -115.2420 196° South 489 563 36,000  Level FlightAware
04:25PM 50.1020 -115.2880 199° South 481 554 36,000  Level FlightAware
04:26PM 50.0250 -115.3350 201° Southwest 482 555 36,000  Level FlightAware
04:27PM 49.8980 -115.4100 201° Southwest 484 557 36,000  Level FlightAware
04:27PM 49.8050 -115.4660 201° Southwest 484 557 36,000  Level FlightAware
04:28PM 49.7180 -115.5180 201° Southwest 483 556 36,000  Level FlightAware
04:29PM 49.6330 -115.5680 201° Southwest 481 554 36,000  Level FlightAware
04:29PM 49.5470 -115.6190 201° Southwest 481 554 36,000  Level FlightAware
04:30PM 49.4540 -115.6740 201° Southwest 480 552 36,000  Level FlightAware
04:31PM 49.3570 -115.7310 201° Southwest 479 551 36,000  Level FlightAware
04:32PM 49.2630 -115.7850 201° Southwest 482 555 36,000  Level FlightAware
04:32PM 49.1950 -115.8250 201° Southwest 483 556 36,000  Level FlightAware
04:33PM 49.0890 -115.8860 201° Southwest 484 557 36,000  Level FlightAware
04:34PM 49.0070 -115.9330 201° Southwest 494 568 36,000  Level FlightAware
04:35PM 48.8760 -115.9890 196° South 485 558 36,000  Level FlightAware
04:36PM 48.7560 -116.0290 192° South 491 565 36,000  Level FlightAware
04:36PM 48.6610 -116.0600 192° South 492 566 36,000  Level FlightAware
04:37PM 48.5850 -116.0850 192° South 493 567 36,000  Level FlightAware
04:38PM 48.4960 -116.1140 192° South 493 567 36,000  Level FlightAware
04:38PM 48.4240 -116.1370 192° South 493 567 36,000  Level FlightAware
04:39PM 48.3330 -116.1660 192° South 493 567 36,000  Level FlightAware
04:40PM 48.2640 -116.1880 192° South 493 567 36,000  Level FlightAware
04:40PM 48.1730 -116.2170 192° South 493 567 36,000  Level FlightAware
04:41PM 48.1030 -116.2390 192° South 493 567 36,000  Level FlightAware
04:42PM 48.0100 -116.2690 192° South 493 567 36,000  Level FlightAware
04:42PM 47.9460 -116.2890 192° South 493 567 36,000  Level FlightAware
04:43PM 47.8510 -116.3190 192° South 493 567 36,000  Level FlightAware
04:44PM 47.7830 -116.3410 192° South 493 567 36,000  Level FlightAware
04:45PM 47.6390 -116.3860 192° South 493 567 36,000  Level FlightAware
04:46PM 47.5700 -116.4080 192° South 493 567 36,000  Level FlightAware
04:47PM 47.2075 -116.5317 192° South 497 572 36,000  Level Seattle Center
04:52PM 46.4890 -116.7540 192° South 499 574 36,000  Level FlightAware
04:53PM 46.3850 -116.7860 192° South 502 578 36,000  Level FlightAware
04:54PM 46.3050 -116.8080 191° South 502 578 36,000  Level FlightAware
04:54PM 46.2320 -116.8290 191° South 502 578 36,000  Level FlightAware
04:55PM 46.1390 -116.8550 191° South 502 578 36,000  Level FlightAware
04:56PM 45.9910 -116.9040 193° South 500 575 36,000  Level FlightAware
04:57PM 45.8750 -116.9400 192° South 499 574 36,000  Level FlightAware
04:58PM 45.7800 -116.9680 192° South 497 572 36,000  Level FlightAware
04:58PM 45.6960 -116.9940 192° South 498 573 36,000  Level FlightAware
04:59PM 45.5980 -117.0230 192° South 497 572 36,000  Level FlightAware
05:00PM 45.5020 -117.0510 192° South 496 571 36,000  Level FlightAware
05:00PM 45.3970 -117.0820 192° South 495 570 36,000  Level FlightAware
05:01PM 45.3080 -117.1080 192° South 497 572 36,000  Level FlightAware
05:02PM 45.2240 -117.1320 191° South 497 572 36,000  Level FlightAware
05:02PM 45.1570 -117.1500 191° South 497 572 36,000  Level FlightAware
05:03PM 45.0650 -117.1750 191° South 497 572 36,000  Level FlightAware
05:04PM 45.0000 -117.1930 191° South 497 572 36,000  Level FlightAware
05:05PM 44.9070 -117.2190 191° South 497 572 36,000  Level FlightAware
05:05PM 44.8350 -117.2390 191° South 497 572 36,000  Level FlightAware
05:06PM 44.7420 -117.2640 191° South 497 572 36,000  Level FlightAware
05:07PM 44.6470 -117.2900 191° South 497 572 36,000  Level FlightAware
05:08PM 44.5580 -117.3140 191° South 497 572 36,000  Level FlightAware
05:08PM 44.4870 -117.3330 191° South 497 572 36,000  Level FlightAware
05:09PM 44.3930 -117.3590 191° South 497 572 36,000  Level FlightAware
05:10PM 44.3280 -117.3770 191° South 497 572 36,000  Level FlightAware
05:10PM 44.2360 -117.4020 191° South 497 572 36,000  Level FlightAware
05:11PM 44.1550 -117.4240 191° South 497 572 36,000  Level FlightAware
05:12PM 43.8842 -117.5156 191° South 491 565 36,000  Level Seattle Center
05:13PM 43.7542 -117.5511 191° South 495 570 36,000  Level Seattle Center
05:14PM 43.6267 -117.5858 191° South 492 566 36,000  Level Seattle Center
05:15PM 43.4811 -117.6272 192° South 483 556 36,000  Level Seattle Center
05:16PM 43.3542 -117.6619 191° South 484 557 36,000  Level Seattle Center
05:17PM 43.2294 -117.6975 192° South 481 554 36,000  Level Seattle Center
05:18PM 43.0819 -117.7392 192° South 483 556 36,000  Level Seattle Center
05:19PM 42.8917 -117.7869 190° South 481 554 36,000  Level Salt Lake Center
05:20PM 42.7656 -117.8206 191° South 482 555 36,000  Level Salt Lake Center
05:21PM 42.6189 -117.8606 191° South 483 556 36,000  Level Salt Lake Center
05:22PM 42.4931 -117.8969 192° South 483 556 36,000  Level Salt Lake Center
05:23PM 42.3683 -117.9356 193° South 481 554 36,000  Level Salt Lake Center
05:24PM 42.2217 -117.9778 192° South 482 555 36,000  Level Salt Lake Center
05:25PM 42.0953 -118.0181 193° South 479 551 36,000  Level Salt Lake Center
05:31PM 41.3840 -118.2220 193° South 480 552 36,000  Level FlightAware
05:31PM 41.3020 -118.2460 192° South 480 552 36,000  Level FlightAware
05:32PM 41.2080 -118.2730 192° South 480 552 36,000  Level FlightAware
05:33PM 41.1410 -118.2910 191° South 480 552 36,000  Level FlightAware
05:34PM 41.0530 -118.3160 192° South 480 552 36,000  Level FlightAware
05:34PM 40.9840 -118.3360 192° South 480 552 36,000  Level FlightAware
05:35PM 40.9180 -118.3540 192° South 480 552 36,000  Level FlightAware
05:36PM 40.7460 -118.4030 192° South 477 549 36,000  Level FlightAware
05:36PM 40.6530 -118.4280 192° South 477 549 36,000  Level FlightAware
05:37PM 40.5640 -118.4520 192° South 476 548 36,000  Level FlightAware
05:38PM 40.4710 -118.4780 192° South 475 547 36,000  Level FlightAware
05:38PM 40.3950 -118.4980 191° South 474 545 36,000 660 Level FlightAware
05:39PM 40.2790 -118.5290 192° South 472 543 37,000 660 Climbing FlightAware
05:40PM 40.1950 -118.5520 192° South 472 543 37,000  Level FlightAware
05:41PM 40.1010 -118.5770 191° South 472 543 37,000  Level FlightAware
05:41PM 40.0140 -118.6000 191° South 472 543 37,000  Level FlightAware
05:42PM 39.9300 -118.6230 192° South 473 544 37,000  Level FlightAware
05:43PM 39.8400 -118.6470 192° South 473 544 37,000  Level FlightAware
05:43PM 39.7480 -118.6710 191° South 473 544 37,000  Level FlightAware
05:44PM 39.6640 -118.6930 191° South 473 544 37,000  Level FlightAware
05:45PM 39.5600 -118.7200 191° South 471 542 37,000  Level FlightAware
05:45PM 39.4750 -118.7430 192° South 471 542 37,000  Level FlightAware
05:46PM 39.3940 -118.7640 191° South 470 541 37,000  Level FlightAware
05:47PM 39.3000 -118.7890 192° South 469 540 37,000  Level FlightAware
05:47PM 39.2150 -118.8110 191° South 468 539 37,000  Level FlightAware
05:48PM 39.1200 -118.8350 191° South 468 539 37,000  Level FlightAware
05:49PM 39.0300 -118.8590 192° South 468 539 37,000  Level FlightAware
05:50PM 38.9460 -118.8800 191° South 467 537 37,000  Level FlightAware
05:50PM 38.8490 -118.9050 191° South 465 535 37,000  Level FlightAware
05:51PM 38.7650 -118.9270 192° South 466 536 37,000  Level FlightAware
05:52PM 38.6770 -118.9490 191° South 467 537 37,000  Level FlightAware
05:52PM 38.5850 -118.9730 192° South 468 539 37,000  Level FlightAware
05:53PM 38.4960 -118.9960 191° South 465 535 37,000  Level FlightAware
05:54PM 38.4070 -119.0180 191° South 464 534 37,000  Level FlightAware
05:54PM 38.3150 -119.0420 192° South 469 540 37,000  Level FlightAware
05:55PM 38.2300 -119.0630 191° South 468 539 37,000  Level FlightAware
05:56PM 38.1400 -119.0860 191° South 465 535 37,000  Level FlightAware
05:56PM 38.0610 -119.1060 191° South 466 536 37,000  Level FlightAware
05:57PM 37.9620 -119.1310 191° South 465 535 37,000  Level FlightAware
05:58PM 37.8780 -119.1520 191° South 465 535 37,000  Level FlightAware
05:59PM 37.7850 -119.1750 191° South 465 535 37,000  Level FlightAware
05:59PM 37.6960 -119.1970 191° South 464 534 37,000  Level FlightAware
06:00PM 37.6040 -119.2200 191° South 463 533 37,000  Level FlightAware
06:01PM 37.5190 -119.2410 191° South 463 533 37,000  Level FlightAware
06:01PM 37.4360 -119.2620 191° South 463 533 37,000  Level FlightAware
06:02PM 37.3440 -119.2850 191° South 462 532 37,000  Level FlightAware
06:03PM 37.2520 -119.3070 191° South 463 533 37,000  Level FlightAware
06:04PM 37.1670 -119.3280 191° South 462 532 37,000  Level FlightAware
06:04PM 37.0750 -119.3510 191° South 460 529 37,000  Level FlightAware
06:05PM 36.9870 -119.3720 191° South 458 527 37,000  Level FlightAware
06:06PM 36.9040 -119.3920 191° South 458 527 37,000  Level FlightAware
06:06PM 36.8110 -119.4150 191° South 458 527 37,000  Level FlightAware
06:07PM 36.7250 -119.4360 191° South 459 528 37,000  Level FlightAware
06:08PM 36.6370 -119.4570 191° South 459 528 37,000  Level FlightAware
06:08PM 36.5510 -119.4780 191° South 460 529 37,000  Level FlightAware
06:09PM 36.4610 -119.5000 191° South 460 529 37,000  Level FlightAware
06:10PM 36.3790 -119.5200 191° South 459 528 37,000  Level FlightAware
06:10PM 36.2990 -119.5390 191° South 459 528 37,000  Level FlightAware
06:11PM 36.2160 -119.5590 191° South 459 528 37,000  Level FlightAware
06:12PM 36.1240 -119.5810 191° South 459 528 37,000  Level FlightAware
06:13PM 36.0340 -119.6020 191° South 459 528 37,000  Level FlightAware
06:13PM 35.9550 -119.6150 188° South 465 535 37,000  Level FlightAware
06:14PM 35.8560 -119.6200 182° South 466 536 37,000  Level FlightAware
06:15PM 35.7700 -119.6230 182° South 465 535 37,000  Level FlightAware
06:15PM 35.6720 -119.6260 181° South 466 536 37,000  Level FlightAware
06:16PM 35.5870 -119.6290 182° South 465 535 37,000 -780 Level FlightAware
06:17PM 35.5000 -119.6330 182° South 468 539 36,000 -1,380 Descending FlightAware
06:17PM 35.4150 -119.6360 182° South 470 541 35,200 -1,500 Descending FlightAware
06:18PM 35.3150 -119.6390 181° South 473 544 33,900 -1,500 Descending FlightAware
06:19PM 35.2200 -119.6100 166° South 477 549 33,000 -1,500 Descending FlightAware
06:20PM 35.1410 -119.5440 146° Southeast 465 535 31,700 -1,860 Descending FlightAware
06:21PM 35.0250 -119.4440 145° Southeast 442 509 29,600 -2,040 Descending FlightAware
06:21PM 34.9560 -119.3850 145° Southeast 435 501 28,000 -2,220 Descending FlightAware
06:22PM 34.8880 -119.3280 145° Southeast 431 496 26,600 -2,100 Descending FlightAware
06:23PM 34.8210 -119.2710 145° Southeast 425 489 25,200 -2,640 Descending FlightAware
06:24PM 34.7490 -119.2100 145° Southeast 439 505 22,900 -2,820 Descending FlightAware
06:24PM 34.6820 -119.1530 145° Southeast 440 506 21,300 -1,560 Descending FlightAware
06:25PM 34.6190 -119.1000 145° Southeast 437 503 20,800 -300 Descending FlightAware
06:26PM 34.5330 -119.0270 145° Southeast 437 503 20,800  Level FlightAware
06:27PM 34.4850 -118.9870 146° Southeast 437 503 20,800 -4,320 Level FlightAware
06:27PM 34.3980 -118.9160 146° Southeast 403 464 15,500 -3,480 Descending FlightAware
06:28PM 34.3310 -118.8590 145° Southeast 403 464 15,500 -1,980 Level FlightAware
06:28PM 34.2990 -118.8590 180° South 389 448 13,500 -3,300 Descending FlightAware
06:29PM 34.2200 -118.8310 164° South 371 427 12,500 -900 Descending FlightAware
06:30PM 34.1620 -118.8100 163° South 12,100 -660 Descending FlightAware
06:30PM 34.0910 -118.7840 163° South 341 392 11,600 -1,140 Descending FlightAware
06:31PM 34.0520 -118.7580 151° Southeast 345 397 10,800 -1,800 Descending FlightAware
06:31PM 34.0410 -118.7390 125° Southeast 346 398 10,400 -900 Descending FlightAware
06:32PM 34.0290 -118.6610 100° East 312 359 10,000 -720 Descending FlightAware
06:32PM 34.0250 -118.6190 97° East 308 354 9,600 -960 Descending FlightAware
06:33PM 34.0210 -118.5700 96° East 299 344 9,200 -780 Descending FlightAware
06:33PM 34.0170 -118.5260 96° East 287 330 8,900 -900 Descending FlightAware
06:33PM 34.0140 -118.4960 97° East 283 326 8,500 -1,080 Descending FlightAware
06:34PM 34.0120 -118.4620 94° East 280 322 8,200 -1,140 Descending FlightAware
06:34PM 34.0150 -118.4170 85° East 276 318 7,600 -1,380 Descending FlightAware
06:35PM 34.0180 -118.3730 85° East 268 308 6,900 -1,140 Descending FlightAware
06:35PM 34.0220 -118.3360 83° East 263 303 6,300 -1,200 Descending FlightAware
06:36PM 34.0260 -118.2980 83° East 262 302 5,600 -2,520 Descending FlightAware
06:36PM 34.0310 -118.2580 81° East 261 300 4,700 -2,100 Descending FlightAware
06:37PM 34.0310 -118.2100 90° East 233 268 4,000 -1,200 Descending FlightAware
06:37PM 34.0240 -118.1970 123° Southeast 229 264 3,800 -1,020 Descending FlightAware
06:37PM 34.0130 -118.1900 152° Southeast 225 259 3,600 -1,320 Descending FlightAware
06:37PM 33.9960 -118.1880 174° South 225 259 3,200 -1,320 Descending FlightAware
06:38PM 33.9850 -118.1950 208° Southwest 224 258 3,000 -660 Descending FlightAware
06:38PM 33.9750 -118.2100 231° Southwest 222 255 2,900 -660 Descending FlightAware
06:38PM 33.9700 -118.2340 256° West 218 251 2,600 -780 Descending FlightAware
06:39PM 33.9660 -118.2710 263° West 199 229 2,200 -780 Descending FlightAware
06:39PM 33.9630 -118.2960 262° West 192 221 1,900 -960 Descending FlightAware
06:39PM 33.9600 -118.3200 261° West 177 204 1,500 -840 Descending FlightAware
06:40PM 33.9590 -118.3350 265° West 154 177 1,300 -720 Descending FlightAware
06:40PM 33.9560 -118.3610 262° West 143 165 900 -840 Descending FlightAware
06:41PM 33.9540 -118.3830 264° West 143 165 500 -720 Descending FlightAware
06:41PM 33.9520 -118.4070 264° West 142 163 200 -600 Descending FlightAware
06:42PM 33.9500 -118.4220 261° West 57 66 -300 Descending FlightAware
06:42PM 33.9490 -118.4290 260° West 57 66  Level FlightAware
06:45PM 32.4150 -117.8470 162° South 20 23  Level FlightAware
06:45PM 32.4130 -117.8460 157° South 22 25  Level FlightAware
06:48PM 33.9380 -118.4180 343° North 3 3  Level FlightAware
06:50PM 33.9343 -118.3987 228° Southwest  Level FlightAware Approximate